Chula Vista, CA (91910)

10:01 AM PST on December 06, 2016 (GMT -0800)
Chula Vista | | Change Station

Elev 50 ft 32.65 °N, 117.07 °W | Updated 1 minute ago

Mostly Cloudy
Mostly Cloudy
62.2 °F
Feels Like 62.2 °F
N
4.0
Wind Variable Wind from WSW
Gusts 12.0 mph

Today
High -- | Low -- °F
--% Chance of Precip.
Yesterday
High -- | Low -- °F
Precip. -- in
Pressure 30.03 in
Visibility 8.0 miles
Clouds Few 2600 ft
Mostly Cloudy 3400 ft
Mostly Cloudy 25000 ft
Dew Point 54 °F
Humidity 74%
Rainfall 0.00 in
Snow Depth Not available.
6:36 AM 4:42 PM
Waxing Crescent, 43% visible
METAR KNRS 061756Z 21009KT 8SM FEW026 BKN034 BKN250 17/11 A3003 RMK AO2 SLP169 T01720106 10172 20133 51012 $
Pressure 30.03 in
Visibility 8.0 miles
Clouds Few 2600 ft
Mostly Cloudy 3400 ft
Mostly Cloudy 25000 ft
Dew Point 54 °F
Humidity 74%
Rainfall 0.00 in
Snow Depth Not available.
6:36 AM 4:42 PM
Waxing Crescent, 43% visible
METAR KNRS 061756Z 21009KT 8SM FEW026 BKN034 BKN250 17/11 A3003 RMK AO2 SLP169 T01720106 10172 20133 51012 $

10-Day Weather Forecast

Almanac

Astronomy

Dec. 06, 2016 Rise Set
Actual Time
Civil Twilight
Nautical Twilight
Astronomical Twilight
Moon
Length of Visible Light
Length of Day
Tomorrow will be .
, % of the Moon is Illuminated

Today's Extremes

State Highs State Lows

Community

WunderPhotos

Upload Photos

1,955,989 photos uploaded!

WunderBlog® & News

Nearby

Air Quality

  Air Quality AQ Index Pollutant
Not available.

Snow Depth

Station Depth Elevation

Earthquake Activity

City Distance Mag. Time & Date
Minimum magnitude displayed is 2.5.

Coastal Water Temperatures

Place Temperature

Stations

Nearby Weather Stations

Station Location Temp. Windchill Dew Point Humidity Wind Precip. Elev Updated Type
                   

Watches & Warnings

There are currently no watches in effect.